Time;durP1;ratioP1;P1;durP2;ratioP2;P2;SDS_P1;SDS_P2;PMS_P1;PMS_P2;Temp;Humidity;BMP_temperature;BMP_pressure;BME280_temperature;BME280_humidity;BME280_pressure;Samples;Min_cycle;Max_cycle;Signal;HPM_P1;HPM_P2
2022/01/26 00:00:02;;;;;;;;;;;;;;;;;;1008103;29;962;-35
2022/01/26 00:00:55;;;;;;;;;;;;;;;;;;1008058;29;662;-35
2022/01/26 00:05:47;;;;;;;;;;;;;;;;;;995972;29;1167;-35
2022/01/26 00:05:51;;;;;;;;;;;;;;;;;;992358;29;1094;-34
2022/01/26 00:06:24;;;;;;;;;;;;;;;;;;995984;29;888;-35
2022/01/26 00:06:55;;;;;;;;;;;;;;;;;;995649;29;1035;-34
2022/01/26 00:07:25;;;;;;;;;;;;;;;;;;995865;29;801;-34
2022/01/26 00:07:56;;;;;;;;;;;;;;;;;;995995;29;1172;-34
2022/01/26 00:08:26;;;;;;;;;;;;;;;;;;996053;29;903;-34
2022/01/26 00:08:58;;;;;;;;;;;;;;;;;;995996;29;963;-34
2022/01/26 00:09:28;;;;;;;;;;;;;;;;;;995927;29;864;-34
2022/01/26 00:09:58;;;;;;;;;;;;;;;;;;995960;29;865;-34
2022/01/26 00:10:29;;;;;;;;;;;;;;;;;;998403;29;1125;-34
2022/01/26 00:10:59;;;;;;;;;;;;;;;;;;1008194;29;981;-34
2022/01/26 00:11:32;;;;;;;;;;;;;;;;;;1007948;29;860;-34
2022/01/26 00:12:03;;;;;;;;;;;;;;;;;;1007686;29;942;-34
2022/01/26 00:12:34;;;;;;;;;;;;;;;;;;1007625;29;1638;-34
2022/01/26 00:13:04;;;;;;;;;;;;;;;;;;1007729;29;855;-35
2022/01/26 00:13:34;;;;;;;;;;;;;;;;;;1007827;29;796;-34
2022/01/26 00:14:09;;;;;;;;;;;;;;;;;;1007929;29;1018;-35
2022/01/26 00:14:42;;;;;;;;;;;;;;;;;;1008255;29;891;-34
2022/01/26 00:15:13;;;;;;;;;;;;;;;;;;1008013;29;891;-34
2022/01/26 00:15:43;;;;;;;;;;;;;;;;;;1008000;29;868;-34
2022/01/26 00:16:28;;;;;;;;;;;;;;;;;;1008020;29;946;-34
2022/01/26 00:17:00;;;;;;;;;;;;;;;;;;1008086;29;859;-34
2022/01/26 00:17:31;;;;;;;;;;;;;;;;;;1008133;29;922;-34
2022/01/26 00:18:01;;;;;;;;;;;;;;;;;;1007784;29;1253;-34
2022/01/26 00:18:35;;;;;;;;;;;;;;;;;;1008173;29;966;-34
2022/01/26 00:19:08;;;;;;;;;;;;;;;;;;1008046;29;934;-34
2022/01/26 00:20:58;;;;;;;;;;;;;;;;;;1008121;29;923;-34
2022/01/26 00:22:01;;;;;;;;;;;;;;;;;;1007859;29;879;-34
2022/01/26 00:24:52;;;;;;;;;;;;;;;;;;1007861;29;934;-34
2022/01/26 00:25:38;;;;;;;;;;;;;;;;;;1007922;29;1365;-34
2022/01/26 00:26:23;;;;;;;;;;;;;;;;;;1007838;29;974;-34
2022/01/26 00:27:35;;;;;;;;;;;;;;;;;;1007924;29;844;-34
2022/01/26 00:28:20;;;;;;;;;;;;;;;;;;1007518;29;2182;-33
2022/01/26 00:29:41;;;;;;;;;;;;;;;;;;1007626;29;856;-34
2022/01/26 00:31:59;;;;;;;;;;;;;;;;;;1007459;29;1279;-34
2022/01/26 00:39:04;;;;;;;;;;;;;;;;;;1007899;29;1164;-35
2022/01/26 00:39:34;;;;;;;;;;;;;;;;;;1007965;29;879;-35
2022/01/26 00:40:13;;;;;;;;;;;;;;;;;;1007989;29;994;-34
2022/01/26 00:40:51;;;;;;;;;;;;;;;;;;1007832;29;975;-35
2022/01/26 00:41:34;;;;;;;;;;;;;;;;;;1007914;29;892;-35
2022/01/26 00:42:05;;;;;;;;;;;;;;;;;;1007884;29;899;-34
2022/01/26 00:42:38;;;;;;;;;;;;;;;;;;1007896;29;924;-34
2022/01/26 00:43:21;;;;;;;;;;;;;;;;;;1007891;29;1907;-34
2022/01/26 00:43:55;;;;;;;;;;;;;;;;;;1008069;29;986;-35
2022/01/26 00:44:40;;;;;;;;;;;;;;;;;;1007803;29;936;-35
2022/01/26 00:45:10;;;;;;;;;;;;;;;;;;1007927;29;881;-34
2022/01/26 00:45:41;;;;;;;;;;;;;;;;;;1003649;29;1509;-35
2022/01/26 00:46:12;;;;;;;;;;;;;;;;;;1003844;29;821;-34
2022/01/26 00:46:48;;;;;;;;;;;;;;;;;;1003796;29;813;-34
2022/01/26 00:47:18;;;;;;;;;;;;;;;;;;1004713;29;912;-35
2022/01/26 00:47:49;;;;;;;;;;;;;;;;;;1007913;29;850;-35
2022/01/26 00:48:21;;;;;;;;;;;;;;;;;;1008008;29;876;-34
2022/01/26 00:48:51;;;;;;;;;;;;;;;;;;1003631;29;1228;-34
2022/01/26 00:49:22;;;;;;;;;;;;;;;;;;1003744;29;935;-35
2022/01/26 00:49:58;;;;;;;;;;;;;;;;;;1003636;29;994;-34
2022/01/26 00:50:28;;;;;;;;;;;;;;;;;;1004523;29;928;-35
2022/01/26 00:51:02;;;;;;;;;;;;;;;;;;1008049;29;1518;-35
2022/01/26 00:51:32;;;;;;;;;;;;;;;;;;1007808;29;963;-36
2022/01/26 00:52:06;;;;;;;;;;;;;;;;;;1007999;29;837;-34
2022/01/26 00:52:41;;;;;;;;;;;;;;;;;;1007776;29;841;-34
2022/01/26 00:53:12;;;;;;;;;;;;;;;;;;1008113;29;908;-34
2022/01/26 00:53:46;;;;;;;;;;;;;;;;;;1007736;29;983;-35
2022/01/26 00:54:17;;;;;;;;;;;;;;;;;;1007969;29;900;-34
2022/01/26 00:54:47;;;;;;;;;;;;;;;;;;1007864;29;943;-35
2022/01/26 00:55:18;;;;;;;;;;;;;;;;;;1008003;29;805;-35
2022/01/26 00:55:48;;;;;;;;;;;;;;;;;;1007808;29;1018;-34
2022/01/26 00:56:19;;;;;;;;;;;;;;;;;;1007885;29;1752;-35
2022/01/26 00:56:49;;;;;;;;;;;;;;;;;;1007784;29;817;-34
2022/01/26 00:57:20;;;;;;;;;;;;;;;;;;1008113;29;544;-34
2022/01/26 00:57:50;;;;;;;;;;;;;;;;;;1007638;29;868;-35
2022/01/26 00:58:21;;;;;;;;;;;;;;;;;;1007909;29;944;-34
2022/01/26 00:58:51;;;;;;;;;;;;;;;;;;1007945;29;951;-35
2022/01/26 00:59:22;;;;;;;;;;;;;;;;;;1003624;29;959;-34
2022/01/26 00:59:52;;;;;;;;;;;;;;;;;;1003642;29;927;-34
2022/01/26 01:00:25;;;;;;;;;;;;;;;;;;1003805;29;955;-34
2022/01/26 01:00:58;;;;;;;;;;;;;;;;;;1004101;29;877;-34
2022/01/26 01:01:28;;;;;;;;;;;;;;;;;;1007889;29;983;-34
2022/01/26 01:01:59;;;;;;;;;;;;;;;;;;1007762;29;884;-35
2022/01/26 01:02:31;;;;;;;;;;;;;;;;;;1007743;29;935;-34
2022/01/26 01:03:02;;;;;;;;;;;;;;;;;;1007814;29;1916;-35
2022/01/26 01:03:35;;;;;;;;;;;;;;;;;;1007940;29;820;-34
2022/01/26 01:04:06;;;;;;;;;;;;;;;;;;1007834;29;884;-34
2022/01/26 01:04:36;;;;;;;;;;;;;;;;;;1007823;29;927;-34
2022/01/26 01:05:16;;;;;;;;;;;;;;;;;;1007926;29;908;-35
2022/01/26 01:06:26;;;;;;;;;;;;;;;;;;1007958;29;907;-34
2022/01/26 01:07:00;;;;;;;;;;;;;;;;;;1007813;29;987;-34
2022/01/26 01:07:35;;;;;;;;;;;;;;;;;;1007938;29;928;-34
2022/01/26 01:08:11;;;;;;;;;;;;;;;;;;1007821;29;1086;-34
2022/01/26 01:08:42;;;;;;;;;;;;;;;;;;1007746;29;890;-35
2022/01/26 01:09:12;;;;;;;;;;;;;;;;;;1008030;29;1018;-34
2022/01/26 01:09:42;;;;;;;;;;;;;;;;;;1007778;29;979;-34
2022/01/26 01:10:16;;;;;;;;;;;;;;;;;;1007860;29;987;-34
2022/01/26 01:10:48;;;;;;;;;;;;;;;;;;1007560;29;920;-34
2022/01/26 01:11:19;;;;;;;;;;;;;;;;;;1007680;29;883;-34
2022/01/26 01:11:55;;;;;;;;;;;;;;;;;;1007473;29;832;-34
2022/01/26 01:12:25;;;;;;;;;;;;;;;;;;1007433;29;924;-35
2022/01/26 01:12:58;;;;;;;;;;;;;;;;;;1007850;29;876;-34
2022/01/26 01:13:40;;;;;;;;;;;;;;;;;;1007906;29;928;-35
2022/01/26 01:14:11;;;;;;;;;;;;;;;;;;1007482;29;891;-35
2022/01/26 01:14:43;;;;;;;;;;;;;;;;;;1007514;29;829;-35
2022/01/26 01:15:14;;;;;;;;;;;;;;;;;;1007488;29;911;-34
2022/01/26 01:15:45;;;;;;;;;;;;;;;;;;1007531;29;872;-34
2022/01/26 01:16:19;;;;;;;;;;;;;;;;;;1007880;29;947;-35
2022/01/26 01:16:52;;;;;;;;;;;;;;;;;;1007784;29;927;-34
2022/01/26 01:17:25;;;;;;;;;;;;;;;;;;1007867;29;975;-34
2022/01/26 01:18:12;;;;;;;;;;;;;;;;;;1007610;29;1191;-35
2022/01/26 01:18:58;;;;;;;;;;;;;;;;;;1007365;29;900;-35
2022/01/26 01:19:41;;;;;;;;;;;;;;;;;;1007884;29;899;-34
2022/01/26 01:20:30;;;;;;;;;;;;;;;;;;1007793;29;994;-34
2022/01/26 01:21:51;;;;;;;;;;;;;;;;;;1007711;29;876;-34
2022/01/26 01:22:36;;;;;;;;;;;;;;;;;;1007616;29;1466;-34
2022/01/26 01:24:52;;;;;;;;;;;;;;;;;;1007718;29;869;-34
2022/01/26 01:26:49;;;;;;;;;;;;;;;;;;1008003;29;931;-34
2022/01/26 01:29:27;;;;;;;;;;;;;;;;;;1007623;29;1191;-36
2022/01/26 01:30:09;;;;;;;;;;;;;;;;;;1007756;29;975;-34
2022/01/26 01:30:43;;;;;;;;;;;;;;;;;;1005458;29;990;-34
2022/01/26 01:31:26;;;;;;;;;;;;;;;;;;1007783;29;795;-34
2022/01/26 01:31:59;;;;;;;;;;;;;;;;;;1007785;29;908;-34
2022/01/26 01:32:38;;;;;;;;;;;;;;;;;;1007648;29;922;-34
2022/01/26 01:33:14;;;;;;;;;;;;;;;;;;1007812;29;923;-34
2022/01/26 01:33:47;;;;;;;;;;;;;;;;;;1007709;29;891;-34
2022/01/26 01:34:22;;;;;;;;;;;;;;;;;;1007742;29;1007;-34
2022/01/26 01:34:52;;;;;;;;;;;;;;;;;;1007819;29;824;-34
2022/01/26 01:35:24;;;;;;;;;;;;;;;;;;1007879;29;918;-34
2022/01/26 01:35:54;;;;;;;;;;;;;;;;;;1007879;29;934;-34
2022/01/26 01:36:24;;;;;;;;;;;;;;;;;;1007762;29;1323;-34
2022/01/26 01:37:01;;;;;;;;;;;;;;;;;;1007871;29;812;-34
2022/01/26 01:37:31;;;;;;;;;;;;;;;;;;1007694;29;930;-34
2022/01/26 01:38:09;;;;;;;;;;;;;;;;;;1007726;29;953;-34
2022/01/26 01:38:41;;;;;;;;;;;;;;;;;;1007887;29;885;-34
2022/01/26 01:39:12;;;;;;;;;;;;;;;;;;1007802;29;859;-34
2022/01/26 01:39:43;;;;;;;;;;;;;;;;;;1007786;29;808;-34
2022/01/26 01:40:13;;;;;;;;;;;;;;;;;;1007731;29;926;-34
2022/01/26 01:40:46;;;;;;;;;;;;;;;;;;1007746;29;848;-33
2022/01/26 01:41:16;;;;;;;;;;;;;;;;;;1007909;29;884;-34
2022/01/26 01:41:48;;;;;;;;;;;;;;;;;;1007714;29;823;-34
2022/01/26 01:42:18;;;;;;;;;;;;;;;;;;1007685;29;930;-34
2022/01/26 01:42:48;;;;;;;;;;;;;;;;;;1007678;29;896;-34
2022/01/26 01:43:20;;;;;;;;;;;;;;;;;;1003674;29;1907;-35
2022/01/26 01:43:51;;;;;;;;;;;;;;;;;;1003539;29;891;-35
2022/01/26 01:44:21;;;;;;;;;;;;;;;;;;1003567;29;890;-35
2022/01/26 01:44:51;;;;;;;;;;;;;;;;;;1003974;29;986;-35
2022/01/26 01:45:35;;;;;;;;;;;;;;;;;;1007670;29;903;-35
2022/01/26 01:46:06;;;;;;;;;;;;;;;;;;1007659;29;978;-35
2022/01/26 01:46:37;;;;;;;;;;;;;;;;;;1007842;29;887;-34
2022/01/26 01:47:08;;;;;;;;;;;;;;;;;;1007685;29;936;-34
2022/01/26 01:47:38;;;;;;;;;;;;;;;;;;1007939;29;829;-34
2022/01/26 01:48:09;;;;;;;;;;;;;;;;;;1007495;29;960;-34
2022/01/26 01:48:40;;;;;;;;;;;;;;;;;;1007878;29;783;-34
2022/01/26 01:49:11;;;;;;;;;;;;;;;;;;1007781;29;939;-34
2022/01/26 01:49:41;;;;;;;;;;;;;;;;;;1007677;29;811;-35
2022/01/26 01:50:12;;;;;;;;;;;;;;;;;;1003560;29;946;-35
2022/01/26 01:50:43;;;;;;;;;;;;;;;;;;1003444;29;970;-34
2022/01/26 01:51:16;;;;;;;;;;;;;;;;;;1003819;29;883;-34
2022/01/26 01:52:11;;;;;;;;;;;;;;;;;;1004150;29;812;-34
2022/01/26 01:52:41;;;;;;;;;;;;;;;;;;1007590;29;1623;-34
2022/01/26 01:53:13;;;;;;;;;;;;;;;;;;1007807;29;804;-34
2022/01/26 01:53:44;;;;;;;;;;;;;;;;;;1007766;29;896;-34
2022/01/26 01:54:17;;;;;;;;;;;;;;;;;;1007742;29;871;-34
2022/01/26 01:54:53;;;;;;;;;;;;;;;;;;1007650;29;859;-34
2022/01/26 01:55:26;;;;;;;;;;;;;;;;;;1003578;29;1101;-34
2022/01/26 01:55:59;;;;;;;;;;;;;;;;;;1003519;29;934;-33
2022/01/26 01:56:29;;;;;;;;;;;;;;;;;;1003501;29;816;-34
2022/01/26 01:57:00;;;;;;;;;;;;;;;;;;1003679;29;939;-34
2022/01/26 01:57:31;;;;;;;;;;;;;;;;;;1003597;29;923;-34
2022/01/26 01:58:02;;;;;;;;;;;;;;;;;;1003654;29;856;-34
2022/01/26 01:58:32;;;;;;;;;;;;;;;;;;1007727;29;994;-35
2022/01/26 01:59:03;;;;;;;;;;;;;;;;;;1007716;29;780;-34
2022/01/26 01:59:33;;;;;;;;;;;;;;;;;;1007692;29;1209;-34
2022/01/26 02:00:05;;;;;;;;;;;;;;;;;;1003290;29;1457;-34
2022/01/26 02:00:35;;;;;;;;;;;;;;;;;;1003613;29;1037;-34
2022/01/26 02:01:06;;;;;;;;;;;;;;;;;;1003656;29;808;-34
2022/01/26 02:01:37;;;;;;;;;;;;;;;;;;1003856;29;847;-35
2022/01/26 02:02:08;;;;;;;;;;;;;;;;;;1007720;29;888;-34
2022/01/26 02:02:38;;;;;;;;;;;;;;;;;;1007592;29;879;-35
2022/01/26 02:03:08;;;;;;;;;;;;;;;;;;1007685;29;1915;-35
2022/01/26 02:03:39;;;;;;;;;;;;;;;;;;1007719;29;899;-34
2022/01/26 02:04:09;;;;;;;;;;;;;;;;;;1007676;29;844;-34
2022/01/26 02:04:39;;;;;;;;;;;;;;;;;;1007792;29;1035;-34
2022/01/26 02:05:10;;;;;;;;;;;;;;;;;;1007602;29;955;-35
2022/01/26 02:05:40;;;;;;;;;;;;;;;;;;1007821;29;823;-34
2022/01/26 02:06:11;;;;;;;;;;;;;;;;;;1007686;29;947;-34
2022/01/26 02:06:43;;;;;;;;;;;;;;;;;;1007694;29;784;-34
2022/01/26 02:07:14;;;;;;;;;;;;;;;;;;1007671;29;867;-34
2022/01/26 02:07:44;;;;;;;;;;;;;;;;;;1007789;29;911;-34
2022/01/26 02:08:14;;;;;;;;;;;;;;;;;;1007624;29;1424;-34
2022/01/26 02:08:45;;;;;;;;;;;;;;;;;;1007911;29;792;-34
2022/01/26 02:09:15;;;;;;;;;;;;;;;;;;1007570;29;887;-34
2022/01/26 02:09:45;;;;;;;;;;;;;;;;;;1007884;29;895;-35
2022/01/26 02:10:16;;;;;;;;;;;;;;;;;;1007572;29;982;-34
2022/01/26 02:10:47;;;;;;;;;;;;;;;;;;1007800;29;863;-34
2022/01/26 02:11:17;;;;;;;;;;;;;;;;;;1007618;29;959;-34
2022/01/26 02:11:52;;;;;;;;;;;;;;;;;;1007710;29;1002;-34
2022/01/26 02:12:25;;;;;;;;;;;;;;;;;;1007572;29;871;-34
2022/01/26 02:12:56;;;;;;;;;;;;;;;;;;1007709;29;832;-34
2022/01/26 02:13:32;;;;;;;;;;;;;;;;;;1007689;29;891;-34
2022/01/26 02:14:12;;;;;;;;;;;;;;;;;;1007633;29;956;-34
2022/01/26 02:14:48;;;;;;;;;;;;;;;;;;1007694;29;784;-35
2022/01/26 02:15:24;;;;;;;;;;;;;;;;;;1007563;29;947;-34
2022/01/26 02:16:36;;;;;;;;;;;;;;;;;;1007853;29;884;-35
2022/01/26 02:18:15;;;;;;;;;;;;;;;;;;1007760;29;1329;-36
2022/01/26 02:21:07;;;;;;;;;;;;;;;;;;1007547;29;1143;-35
2022/01/26 02:49:43;;;;;;;;;;;;;;;;;;1008356;29;809;-35
2022/01/26 02:55:40;;;;;;;;;;;;;;;;;;1008157;29;868;-34
2022/01/26 02:56:48;;;;;;;;;;;;;;;;;;1008449;29;812;-34
2022/01/26 02:58:02;;;;;;;;;;;;;;;;;;1008014;29;1279;-34
2022/01/26 02:58:41;;;;;;;;;;;;;;;;;;1004300;29;1016;-35
2022/01/26 02:59:23;;;;;;;;;;;;;;;;;;1008269;29;1487;-34
2022/01/26 03:00:29;;;;;;;;;;;;;;;;;;1008445;29;936;-34
2022/01/26 03:02:43;;;;;;;;;;;;;;;;;;1003618;29;1273;-34
2022/01/26 03:03:27;;;;;;;;;;;;;;;;;;1003811;29;1985;-34
2022/01/26 03:05:10;;;;;;;;;;;;;;;;;;1004648;29;1049;-35
2022/01/26 03:05:49;;;;;;;;;;;;;;;;;;1008312;29;1014;-36
2022/01/26 03:06:27;;;;;;;;;;;;;;;;;;1008346;29;963;-35
2022/01/26 03:07:05;;;;;;;;;;;;;;;;;;1008179;29;987;-34
2022/01/26 03:07:52;;;;;;;;;;;;;;;;;;1008170;29;916;-34
2022/01/26 03:08:31;;;;;;;;;;;;;;;;;;1008429;29;813;-34
2022/01/26 03:09:08;;;;;;;;;;;;;;;;;;1008211;29;896;-34
2022/01/26 03:09:47;;;;;;;;;;;;;;;;;;1008326;29;1003;-35
2022/01/26 03:10:55;;;;;;;;;;;;;;;;;;1008257;29;888;-34
2022/01/26 03:11:28;;;;;;;;;;;;;;;;;;1008401;29;816;-34
2022/01/26 03:12:01;;;;;;;;;;;;;;;;;;1008139;29;1169;-35
2022/01/26 03:12:43;;;;;;;;;;;;;;;;;;1008172;29;956;-33
2022/01/26 03:13:19;;;;;;;;;;;;;;;;;;1008284;29;924;-34
2022/01/26 03:13:56;;;;;;;;;;;;;;;;;;1008322;29;868;-34
2022/01/26 03:15:12;;;;;;;;;;;;;;;;;;1008403;29;867;-35
2022/01/26 03:15:48;;;;;;;;;;;;;;;;;;1008299;29;958;-34
2022/01/26 03:16:28;;;;;;;;;;;;;;;;;;1008163;29;896;-34
2022/01/26 03:17:12;;;;;;;;;;;;;;;;;;1008220;29;912;-34
2022/01/26 03:19:21;;;;;;;;;;;;;;;;;;1008305;29;843;-34
2022/01/26 03:19:55;;;;;;;;;;;;;;;;;;1008394;29;822;-34
2022/01/26 03:20:27;;;;;;;;;;;;;;;;;;1008309;29;796;-34
2022/01/26 03:21:01;;;;;;;;;;;;;;;;;;1008149;29;880;-34
2022/01/26 03:21:49;;;;;;;;;;;;;;;;;;1008447;29;963;-34
2022/01/26 03:29:39;;;;;;;;;;;;;;;;;;1008195;29;832;-34
2022/01/26 03:30:29;;;;;;;;;;;;;;;;;;1007939;29;1194;-34
2022/01/26 03:32:32;;;;;;;;;;;;;;;;;;1008284;29;946;-34
2022/01/26 03:33:09;;;;;;;;;;;;;;;;;;1007964;29;1286;-34
2022/01/26 03:34:28;;;;;;;;;;;;;;;;;;1008237;29;919;-34
2022/01/26 03:35:00;;;;;;;;;;;;;;;;;;1008239;29;889;-34
2022/01/26 03:35:51;;;;;;;;;;;;;;;;;;1008287;29;883;-35
2022/01/26 03:36:27;;;;;;;;;;;;;;;;;;1008199;29;942;-34
2022/01/26 03:37:03;;;;;;;;;;;;;;;;;;1008253;29;880;-34
2022/01/26 03:37:38;;;;;;;;;;;;;;;;;;1008147;29;895;-34
2022/01/26 03:38:17;;;;;;;;;;;;;;;;;;1008130;29;939;-34
2022/01/26 03:38:56;;;;;;;;;;;;;;;;;;1008241;29;884;-34
2022/01/26 03:39:29;;;;;;;;;;;;;;;;;;1008198;29;887;-34
2022/01/26 03:39:59;;;;;;;;;;;;;;;;;;1008205;29;911;-34
2022/01/26 03:40:33;;;;;;;;;;;;;;;;;;1008199;29;902;-34
2022/01/26 03:41:19;;;;;;;;;;;;;;;;;;1008246;29;1392;-34
2022/01/26 03:41:55;;;;;;;;;;;;;;;;;;1007479;29;947;-34
2022/01/26 03:42:26;;;;;;;;;;;;;;;;;;1008158;29;936;-34
2022/01/26 03:42:59;;;;;;;;;;;;;;;;;;1008109;29;923;-35
2022/01/26 03:43:29;;;;;;;;;;;;;;;;;;1008209;29;1003;-35
2022/01/26 03:44:00;;;;;;;;;;;;;;;;;;1008179;29;926;-34
2022/01/26 03:44:30;;;;;;;;;;;;;;;;;;1008163;29;931;-34
2022/01/26 03:45:00;;;;;;;;;;;;;;;;;;1008222;29;978;-34
2022/01/26 03:45:31;;;;;;;;;;;;;;;;;;1008211;29;824;-35
2022/01/26 03:46:01;;;;;;;;;;;;;;;;;;1008035;29;903;-34
2022/01/26 03:46:32;;;;;;;;;;;;;;;;;;1008251;29;914;-34
2022/01/26 03:47:02;;;;;;;;;;;;;;;;;;1008178;29;935;-34
2022/01/26 03:47:33;;;;;;;;;;;;;;;;;;1008159;29;802;-34
2022/01/26 03:48:03;;;;;;;;;;;;;;;;;;1008097;29;803;-34
2022/01/26 03:48:34;;;;;;;;;;;;;;;;;;1008099;29;848;-34
2022/01/26 03:49:06;;;;;;;;;;;;;;;;;;1008314;29;891;-35
2022/01/26 03:49:37;;;;;;;;;;;;;;;;;;1008027;29;892;-35
2022/01/26 03:50:07;;;;;;;;;;;;;;;;;;1008139;29;761;-34
2022/01/26 03:50:38;;;;;;;;;;;;;;;;;;1008231;29;892;-34
2022/01/26 03:51:08;;;;;;;;;;;;;;;;;;1008195;29;800;-34
2022/01/26 03:51:40;;;;;;;;;;;;;;;;;;1008222;29;867;-34
2022/01/26 03:52:10;;;;;;;;;;;;;;;;;;1007655;29;832;-34
2022/01/26 03:52:41;;;;;;;;;;;;;;;;;;1007671;29;769;-34
2022/01/26 03:53:11;;;;;;;;;;;;;;;;;;1007946;29;977;-32
2022/01/26 03:53:41;;;;;;;;;;;;;;;;;;1007761;29;919;-34
2022/01/26 03:54:13;;;;;;;;;;;;;;;;;;1008073;29;938;-34
2022/01/26 03:54:43;;;;;;;;;;;;;;;;;;1008243;29;904;-34
2022/01/26 03:55:14;;;;;;;;;;;;;;;;;;1008081;29;831;-34
2022/01/26 03:55:44;;;;;;;;;;;;;;;;;;1008228;29;784;-34
2022/01/26 03:56:14;;;;;;;;;;;;;;;;;;1007940;29;1242;-34
2022/01/26 03:56:45;;;;;;;;;;;;;;;;;;1008189;29;958;-34
2022/01/26 03:57:15;;;;;;;;;;;;;;;;;;1008070;29;958;-34
2022/01/26 03:57:45;;;;;;;;;;;;;;;;;;1008148;29;831;-34
2022/01/26 03:58:16;;;;;;;;;;;;;;;;;;1008033;29;934;-34
2022/01/26 03:58:46;;;;;;;;;;;;;;;;;;1008159;29;938;-34
2022/01/26 03:59:17;;;;;;;;;;;;;;;;;;1008198;29;923;-34
2022/01/26 03:59:47;;;;;;;;;;;;;;;;;;1008238;29;883;-34
2022/01/26 04:00:18;;;;;;;;;;;;;;;;;;1007948;29;840;-34
2022/01/26 04:00:48;;;;;;;;;;;;;;;;;;1008261;29;911;-34
2022/01/26 04:01:18;;;;;;;;;;;;;;;;;;1008102;29;871;-34
2022/01/26 04:01:49;;;;;;;;;;;;;;;;;;1008185;29;930;-33
2022/01/26 04:02:19;;;;;;;;;;;;;;;;;;1008031;29;808;-34
2022/01/26 04:02:49;;;;;;;;;;;;;;;;;;1008085;29;894;-34
2022/01/26 04:03:20;;;;;;;;;;;;;;;;;;1008003;29;1903;-34
2022/01/26 04:03:50;;;;;;;;;;;;;;;;;;1008107;29;875;-34
2022/01/26 04:04:20;;;;;;;;;;;;;;;;;;1008027;29;792;-35
2022/01/26 04:04:57;;;;;;;;;;;;;;;;;;1008119;29;710;-34
2022/01/26 04:05:28;;;;;;;;;;;;;;;;;;1008177;29;943;-34
2022/01/26 04:05:59;;;;;;;;;;;;;;;;;;1008042;29;888;-34
2022/01/26 04:06:30;;;;;;;;;;;;;;;;;;1008249;29;903;-34
2022/01/26 04:07:01;;;;;;;;;;;;;;;;;;1007922;29;1160;-34
2022/01/26 04:07:32;;;;;;;;;;;;;;;;;;1008169;29;1458;-34
2022/01/26 04:08:09;;;;;;;;;;;;;;;;;;1007993;29;898;-33
2022/01/26 04:08:42;;;;;;;;;;;;;;;;;;1008062;29;788;-34
2022/01/26 04:09:15;;;;;;;;;;;;;;;;;;1007993;29;950;-34
2022/01/26 04:09:45;;;;;;;;;;;;;;;;;;1008162;29;1027;-34
2022/01/26 04:10:31;;;;;;;;;;;;;;;;;;1008019;29;935;-35
2022/01/26 04:11:51;;;;;;;;;;;;;;;;;;1008081;29;895;-34
2022/01/26 04:12:22;;;;;;;;;;;;;;;;;;1007943;29;895;-34
2022/01/26 04:12:53;;;;;;;;;;;;;;;;;;1008112;29;907;-33
2022/01/26 04:13:23;;;;;;;;;;;;;;;;;;1008029;29;832;-34
2022/01/26 04:13:54;;;;;;;;;;;;;;;;;;1007891;29;1141;-34
2022/01/26 04:14:28;;;;;;;;;;;;;;;;;;1008148;29;942;-34
2022/01/26 04:15:06;;;;;;;;;;;;;;;;;;1007956;29;847;-34
2022/01/26 04:15:37;;;;;;;;;;;;;;;;;;1008141;29;978;-34
2022/01/26 04:16:08;;;;;;;;;;;;;;;;;;1007982;29;919;-33
2022/01/26 04:16:40;;;;;;;;;;;;;;;;;;1008141;29;974;-34
2022/01/26 04:17:10;;;;;;;;;;;;;;;;;;1007937;29;848;-33
2022/01/26 04:17:41;;;;;;;;;;;;;;;;;;1008031;29;1282;-34
2022/01/26 04:18:16;;;;;;;;;;;;;;;;;;1008012;29;863;-34
2022/01/26 04:18:46;;;;;;;;;;;;;;;;;;1008108;29;830;-34
2022/01/26 04:19:18;;;;;;;;;;;;;;;;;;1007925;29;930;-34
2022/01/26 04:19:54;;;;;;;;;;;;;;;;;;1008162;29;896;-34
2022/01/26 04:20:28;;;;;;;;;;;;;;;;;;1008072;29;963;-34
2022/01/26 04:21:04;;;;;;;;;;;;;;;;;;1008005;29;950;-34
2022/01/26 04:22:17;;;;;;;;;;;;;;;;;;1007984;29;872;-35
2022/01/26 04:23:03;;;;;;;;;;;;;;;;;;1007964;29;1112;-33
2022/01/26 04:23:43;;;;;;;;;;;;;;;;;;1008105;29;791;-35
2022/01/26 04:24:25;;;;;;;;;;;;;;;;;;1007860;29;954;-34
2022/01/26 04:24:56;;;;;;;;;;;;;;;;;;1008014;29;1781;-34
2022/01/26 04:25:27;;;;;;;;;;;;;;;;;;1007996;29;935;-34
2022/01/26 04:25:57;;;;;;;;;;;;;;;;;;1007951;29;871;-34
2022/01/26 04:26:42;;;;;;;;;;;;;;;;;;1007985;29;927;-34
2022/01/26 04:27:52;;;;;;;;;;;;;;;;;;1007970;29;868;-35
2022/01/26 04:28:39;;;;;;;;;;;;;;;;;;1008023;29;894;-34
2022/01/26 04:29:15;;;;;;;;;;;;;;;;;;1007953;29;934;-34
2022/01/26 04:29:47;;;;;;;;;;;;;;;;;;1008118;29;896;-34
2022/01/26 04:30:18;;;;;;;;;;;;;;;;;;1007798;29;1180;-34
2022/01/26 04:30:48;;;;;;;;;;;;;;;;;;1008137;29;801;-35
2022/01/26 04:31:20;;;;;;;;;;;;;;;;;;1007943;29;1098;-34
2022/01/26 04:31:51;;;;;;;;;;;;;;;;;;1007974;29;994;-34
2022/01/26 04:32:22;;;;;;;;;;;;;;;;;;1007818;29;884;-35
2022/01/26 04:32:55;;;;;;;;;;;;;;;;;;1008042;29;812;-34
2022/01/26 04:33:26;;;;;;;;;;;;;;;;;;1007948;29;977;-34
2022/01/26 04:33:56;;;;;;;;;;;;;;;;;;1007983;29;871;-34
2022/01/26 04:34:27;;;;;;;;;;;;;;;;;;1007895;29;907;-34
2022/01/26 04:34:57;;;;;;;;;;;;;;;;;;1008086;29;852;-34
2022/01/26 04:35:28;;;;;;;;;;;;;;;;;;1008038;29;915;-34
2022/01/26 04:35:58;;;;;;;;;;;;;;;;;;1007913;29;946;-34
2022/01/26 04:36:35;;;;;;;;;;;;;;;;;;1008045;29;888;-34
2022/01/26 04:38:35;;;;;;;;;;;;;;;;;;1007837;29;954;-34
2022/01/26 04:39:10;;;;;;;;;;;;;;;;;;1007992;29;797;-34
2022/01/26 04:39:50;;;;;;;;;;;;;;;;;;1007865;29;788;-35
2022/01/26 04:40:21;;;;;;;;;;;;;;;;;;1007802;29;887;-34
2022/01/26 04:41:12;;;;;;;;;;;;;;;;;;1008098;29;824;-34
2022/01/26 04:41:50;;;;;;;;;;;;;;;;;;1008017;29;968;-34
2022/01/26 04:42:32;;;;;;;;;;;;;;;;;;1007596;29;830;-34
2022/01/26 04:43:07;;;;;;;;;;;;;;;;;;1008109;29;1915;-33
2022/01/26 04:43:41;;;;;;;;;;;;;;;;;;1007867;29;808;-34
2022/01/26 04:44:50;;;;;;;;;;;;;;;;;;1007928;29;832;-34
2022/01/26 04:45:10;;;;;;;;;;;;;;;;;;1005907;29;1364;-33
2022/01/26 04:45:40;;;;;;;;;;;;;;;;;;1007949;29;963;-34
2022/01/26 04:46:11;;;;;;;;;;;;;;;;;;1007971;29;886;-34
2022/01/26 04:46:41;;;;;;;;;;;;;;;;;;1007855;29;1006;-33
2022/01/26 04:47:11;;;;;;;;;;;;;;;;;;1008049;29;907;-34
2022/01/26 04:47:42;;;;;;;;;;;;;;;;;;1007917;29;844;-35
2022/01/26 04:48:12;;;;;;;;;;;;;;;;;;1007935;29;907;-35
2022/01/26 04:48:42;;;;;;;;;;;;;;;;;;1007962;29;926;-35
2022/01/26 04:49:13;;;;;;;;;;;;;;;;;;1007789;29;963;-34
2022/01/26 04:49:43;;;;;;;;;;;;;;;;;;1008067;29;880;-34
2022/01/26 04:50:13;;;;;;;;;;;;;;;;;;1003557;29;864;-34
2022/01/26 04:50:44;;;;;;;;;;;;;;;;;;1003820;29;891;-34
2022/01/26 04:51:14;;;;;;;;;;;;;;;;;;1003768;29;780;-34
2022/01/26 04:51:45;;;;;;;;;;;;;;;;;;1003808;29;923;-34
2022/01/26 04:52:15;;;;;;;;;;;;;;;;;;1007784;29;785;-34
2022/01/26 04:52:46;;;;;;;;;;;;;;;;;;1007904;29;1280;-33
2022/01/26 04:53:16;;;;;;;;;;;;;;;;;;1007696;29;920;-34
2022/01/26 04:53:47;;;;;;;;;;;;;;;;;;1008088;29;879;-33
2022/01/26 04:54:17;;;;;;;;;;;;;;;;;;1007697;29;867;-35
2022/01/26 04:54:49;;;;;;;;;;;;;;;;;;1008104;29;864;-35
2022/01/26 04:55:19;;;;;;;;;;;;;;;;;;1007878;29;923;-34
2022/01/26 04:55:51;;;;;;;;;;;;;;;;;;1007948;29;792;-35
2022/01/26 04:56:22;;;;;;;;;;;;;;;;;;1007928;29;1002;-34
2022/01/26 04:56:52;;;;;;;;;;;;;;;;;;1007843;29;1014;-34
2022/01/26 04:57:23;;;;;;;;;;;;;;;;;;1007797;29;1164;-34
2022/01/26 04:57:53;;;;;;;;;;;;;;;;;;1007821;29;943;-34
2022/01/26 04:58:23;;;;;;;;;;;;;;;;;;1007862;29;879;-34
2022/01/26 04:58:54;;;;;;;;;;;;;;;;;;1007943;29;911;-34
2022/01/26 04:59:24;;;;;;;;;;;;;;;;;;1007878;29;863;-34
2022/01/26 04:59:55;;;;;;;;;;;;;;;;;;1007856;29;908;-34
2022/01/26 05:00:25;;;;;;;;;;;;;;;;;;1007982;29;884;-34
2022/01/26 05:00:56;;;;;;;;;;;;;;;;;;1003644;29;833;-34
2022/01/26 05:01:26;;;;;;;;;;;;;;;;;;1003816;29;915;-35
2022/01/26 05:01:56;;;;;;;;;;;;;;;;;;1003643;29;1007;-34
2022/01/26 05:02:26;;;;;;;;;;;;;;;;;;1003648;29;986;-34
2022/01/26 05:02:57;;;;;;;;;;;;;;;;;;1007922;29;844;-34
2022/01/26 05:03:27;;;;;;;;;;;;;;;;;;1007735;29;1988;-34
2022/01/26 05:03:58;;;;;;;;;;;;;;;;;;1007849;29;827;-34
2022/01/26 05:04:28;;;;;;;;;;;;;;;;;;1007840;29;1034;-34
2022/01/26 05:04:58;;;;;;;;;;;;;;;;;;1007789;29;934;-34
2022/01/26 05:05:29;;;;;;;;;;;;;;;;;;1003820;29;829;-34
2022/01/26 05:05:59;;;;;;;;;;;;;;;;;;1003645;29;1000;-34
2022/01/26 05:06:29;;;;;;;;;;;;;;;;;;1003773;29;943;-34
2022/01/26 05:07:00;;;;;;;;;;;;;;;;;;1003752;29;931;-34
2022/01/26 05:07:30;;;;;;;;;;;;;;;;;;1007719;29;974;-34
2022/01/26 05:08:00;;;;;;;;;;;;;;;;;;1007694;29;1145;-34
2022/01/26 05:08:31;;;;;;;;;;;;;;;;;;1007856;29;1002;-34
2022/01/26 05:09:02;;;;;;;;;;;;;;;;;;1007876;29;875;-34
2022/01/26 05:09:33;;;;;;;;;;;;;;;;;;1007859;29;931;-34
2022/01/26 05:10:04;;;;;;;;;;;;;;;;;;1007779;29;907;-34
2022/01/26 05:10:37;;;;;;;;;;;;;;;;;;1007872;29;998;-34
2022/01/26 05:11:10;;;;;;;;;;;;;;;;;;1007941;29;978;-34
2022/01/26 05:11:42;;;;;;;;;;;;;;;;;;1007748;29;950;-34
2022/01/26 05:12:14;;;;;;;;;;;;;;;;;;1007791;29;1010;-34
2022/01/26 05:12:44;;;;;;;;;;;;;;;;;;1007660;29;780;-35
2022/01/26 05:13:16;;;;;;;;;;;;;;;;;;1007958;29;816;-34
2022/01/26 05:13:46;;;;;;;;;;;;;;;;;;1007832;29;840;-32
2022/01/26 05:14:16;;;;;;;;;;;;;;;;;;1007710;29;923;-34
2022/01/26 05:14:48;;;;;;;;;;;;;;;;;;1007885;29;952;-34
2022/01/26 05:15:22;;;;;;;;;;;;;;;;;;1007870;29;839;-34
2022/01/26 05:15:52;;;;;;;;;;;;;;;;;;1007811;29;1005;-34